createdAt,value
2022-08-17T00:00:17.307Z,97041.03
2022-08-17T00:03:10.795Z,97044.75
2022-08-17T00:05:42.040Z,97050.50
2022-08-17T00:08:10.113Z,97045.34
2022-08-17T00:10:38.189Z,97048.66
2022-08-17T00:13:07.904Z,97056.69
2022-08-17T00:15:37.192Z,97058.72
2022-08-17T00:19:02.047Z,97060.59
2022-08-17T00:20:52.723Z,97056.88
2022-08-17T00:23:20.476Z,97051.75
2022-08-17T00:25:48.471Z,97049.03
2022-08-17T00:28:16.948Z,97051.47
2022-08-17T00:30:52.762Z,97047.34
2022-08-17T00:33:23.865Z,97057.63
2022-08-17T00:35:52.032Z,97058.63
2022-08-17T00:38:19.802Z,97060.03
2022-08-17T00:40:49.718Z,97049.56
2022-08-17T00:43:21.974Z,97051.63
2022-08-17T00:45:50.966Z,97051.22
2022-08-17T00:48:29.424Z,97063.75
2022-08-17T00:51:01.061Z,97055.91
2022-08-17T00:53:30.467Z,97056.31
2022-08-17T00:55:58.496Z,97057.75
2022-08-17T00:58:35.869Z,97052.81
2022-08-17T01:01:06.167Z,97056.72
2022-08-17T01:03:34.388Z,97053.03
2022-08-17T01:06:04.391Z,97049.72
2022-08-17T01:08:33.376Z,97053.00
2022-08-17T01:11:05.404Z,97047.84
2022-08-17T01:13:41.220Z,97042.69
2022-08-17T01:16:16.923Z,97044.97
2022-08-17T01:18:45.785Z,97048.81
2022-08-17T01:21:19.502Z,97046.41
2022-08-17T01:23:48.524Z,97045.13
2022-08-17T01:26:16.634Z,97043.06
2022-08-17T01:28:53.865Z,97041.34
2022-08-17T01:31:24.972Z,97043.00
2022-08-17T01:33:52.909Z,97041.59
2022-08-17T01:36:20.551Z,97053.41
2022-08-17T01:38:49.584Z,97054.69
2022-08-17T01:41:18.207Z,97049.16
2022-08-17T01:43:48.182Z,97059.41
2022-08-17T01:46:17.262Z,97049.13
2022-08-17T01:48:47.452Z,97056.50
2022-08-17T01:51:15.927Z,97052.25
2022-08-17T01:53:51.084Z,97058.25
2022-08-17T01:56:23.056Z,97050.66
2022-08-17T01:58:50.926Z,97058.44
2022-08-17T02:01:20.464Z,97051.00
2022-08-17T02:03:59.209Z,97049.34
2022-08-17T02:06:29.080Z,97048.66
2022-08-17T02:09:03.296Z,97050.31
2022-08-17T02:11:34.803Z,97044.75
2022-08-17T02:14:04.065Z,97041.44
2022-08-17T02:16:36.917Z,97033.56
2022-08-17T02:19:07.918Z,97040.81
2022-08-17T02:21:36.150Z,97032.56
2022-08-17T02:24:04.410Z,97041.81
2022-08-17T02:26:33.398Z,97030.31
2022-08-17T02:29:01.029Z,97039.31
2022-08-17T02:31:31.043Z,97032.56
2022-08-17T02:34:04.448Z,97026.56
2022-08-17T02:36:34.448Z,97030.34
2022-08-17T02:39:03.099Z,97028.28
2022-08-17T02:41:30.955Z,97020.91
2022-08-17T02:43:59.993Z,97024.78
2022-08-17T02:46:28.240Z,97021.28
2022-08-17T02:48:55.901Z,97027.69
2022-08-17T02:51:23.743Z,97026.22
2022-08-17T02:53:51.357Z,97021.50
2022-08-17T02:56:19.070Z,97027.88
2022-08-17T02:58:46.751Z,97023.31
2022-08-17T03:01:16.594Z,97018.59
2022-08-17T03:03:44.518Z,97019.22
2022-08-17T03:06:12.391Z,97014.91
2022-08-17T03:08:40.578Z,97016.75
2022-08-17T03:11:08.467Z,97011.81
2022-08-17T03:13:36.098Z,97012.00
2022-08-17T03:16:04.347Z,97014.66
2022-08-17T03:18:33.277Z,97019.13
2022-08-17T03:21:04.216Z,97012.16
2022-08-17T03:23:32.244Z,97010.91
2022-08-17T03:26:00.658Z,97013.06
2022-08-17T03:28:29.283Z,97013.19
2022-08-17T03:30:56.911Z,97012.22
2022-08-17T03:33:24.515Z,97007.31
2022-08-17T03:35:53.693Z,97008.34
2022-08-17T03:38:21.845Z,97008.97
2022-08-17T03:40:56.260Z,97011.97
2022-08-17T03:43:28.615Z,97011.78
2022-08-17T03:46:28.453Z,97011.34
2022-08-17T03:49:19.352Z,97014.84
2022-08-17T03:52:05.807Z,97017.53
2022-08-17T03:54:51.896Z,97014.53
2022-08-17T03:57:20.302Z,97008.59
2022-08-17T03:59:48.048Z,97006.47
2022-08-17T04:02:19.361Z,97004.44
2022-08-17T04:04:47.035Z,97009.78
2022-08-17T04:07:15.998Z,97010.03
2022-08-17T04:09:44.226Z,97011.88
2022-08-17T04:12:11.879Z,97017.16
2022-08-17T04:14:53.365Z,97022.53
2022-08-17T04:17:23.580Z,97016.78
2022-08-17T04:19:51.220Z,97019.81
2022-08-17T04:22:30.226Z,97032.13
2022-08-17T04:25:01.884Z,97030.47
2022-08-17T04:27:29.506Z,97031.13
2022-08-17T04:29:57.299Z,97033.16
2022-08-17T04:33:03.924Z,97031.13
2022-08-17T04:35:12.564Z,97027.44
2022-08-17T04:37:41.852Z,97034.03
2022-08-17T04:40:28.211Z,97032.19
2022-08-17T04:43:02.737Z,97036.81
2022-08-17T04:45:31.909Z,97042.41
2022-08-17T04:48:00.233Z,97038.97
2022-08-17T04:50:27.930Z,97048.44
2022-08-17T04:52:57.310Z,97045.97
2022-08-17T04:55:25.367Z,97048.88
2022-08-17T04:57:52.973Z,97052.00
2022-08-17T05:00:20.807Z,97052.00
2022-08-17T05:02:50.266Z,97053.72
2022-08-17T05:05:20.830Z,97054.31
2022-08-17T05:07:48.911Z,97053.13
2022-08-17T05:10:18.092Z,97060.94
2022-08-17T05:12:46.047Z,97054.56
2022-08-17T05:15:16.096Z,97060.53
2022-08-17T05:17:43.819Z,97057.53
2022-08-17T05:20:12.035Z,97058.97
2022-08-17T05:22:49.300Z,97054.09
2022-08-17T05:25:22.524Z,97060.81
2022-08-17T05:27:53.612Z,97053.69
2022-08-17T05:30:21.485Z,97059.25
2022-08-17T05:32:54.251Z,97053.41
2022-08-17T05:35:22.440Z,97054.19
2022-08-17T05:37:50.726Z,97063.31
2022-08-17T05:40:21.677Z,97066.22
2022-08-17T05:42:49.798Z,97058.81
2022-08-17T05:45:39.960Z,97058.66
2022-08-17T05:48:10.717Z,97052.97
2022-08-17T05:50:46.481Z,97055.19
2022-08-17T05:53:22.736Z,97061.00
2022-08-17T05:55:59.311Z,97053.25
2022-08-17T05:58:36.893Z,97066.41
2022-08-17T06:01:08.898Z,97057.66
2022-08-17T06:03:43.275Z,97060.38
2022-08-17T06:06:25.231Z,97053.47
2022-08-17T06:09:08.762Z,97056.34
2022-08-17T06:11:42.186Z,97055.53
2022-08-17T06:14:17.868Z,97052.28
2022-08-17T06:16:47.885Z,97048.78
2022-08-17T06:19:18.220Z,97047.81
2022-08-17T06:21:48.064Z,97053.16
2022-08-17T06:24:27.401Z,97049.06
2022-08-17T06:26:58.692Z,97046.00
2022-08-17T06:29:37.399Z,97045.78
2022-08-17T06:32:06.108Z,97044.13
2022-08-17T06:34:34.888Z,97049.50
2022-08-17T06:37:10.579Z,97050.91
2022-08-17T06:39:47.533Z,97051.72
2022-08-17T06:43:02.055Z,97049.25
2022-08-17T06:45:15.312Z,97052.75
2022-08-17T06:47:47.453Z,97056.47
2022-08-17T06:50:19.593Z,97054.44
2022-08-17T06:52:55.255Z,97056.84
2022-08-17T06:55:27.255Z,97054.41
2022-08-17T06:58:02.053Z,97068.47
2022-08-17T07:00:41.723Z,97061.16
2022-08-17T07:03:16.346Z,97067.91
2022-08-17T07:05:46.723Z,97073.00
2022-08-17T07:08:19.370Z,97077.88
2022-08-17T07:10:50.215Z,97073.34
2022-08-17T07:13:30.915Z,97080.59
2022-08-17T07:16:06.146Z,97078.59
2022-08-17T07:18:34.470Z,97078.19
2022-08-17T07:21:14.119Z,97083.88
2022-08-17T07:23:54.061Z,97085.91
2022-08-17T07:26:24.244Z,97078.53
2022-08-17T07:28:54.994Z,97080.75
2022-08-17T07:31:22.871Z,97078.63
2022-08-17T07:34:03.486Z,97087.03
2022-08-17T07:36:33.855Z,97090.91
2022-08-17T07:39:03.041Z,97088.41
2022-08-17T07:41:57.349Z,97087.38
2022-08-17T07:44:24.749Z,97084.03
2022-08-17T07:47:11.731Z,97102.03
2022-08-17T07:49:42.636Z,97102.94
2022-08-17T07:52:24.120Z,97098.81
2022-08-17T07:55:00.931Z,97090.00
2022-08-17T07:57:34.082Z,97091.47
2022-08-17T08:00:16.347Z,97106.75
2022-08-17T08:02:45.824Z,97103.13
2022-08-17T08:05:29.995Z,97106.81
2022-08-17T08:08:26.930Z,97113.47
2022-08-17T08:11:09.428Z,97109.72
2022-08-17T08:13:42.417Z,97108.81
2022-08-17T08:16:20.919Z,97106.94
2022-08-17T08:18:55.676Z,97110.22
2022-08-17T08:21:33.042Z,97105.97
2022-08-17T08:24:06.151Z,97116.72
2022-08-17T08:26:51.311Z,97114.78
2022-08-17T08:29:28.144Z,97111.56
2022-08-17T08:32:01.030Z,97102.47
2022-08-17T08:34:44.588Z,97102.84
2022-08-17T08:37:36.672Z,97101.38
2022-08-17T08:40:14.883Z,97101.34
2022-08-17T08:42:49.857Z,97105.91
2022-08-17T08:45:21.875Z,97109.41
2022-08-17T08:48:53.432Z,97110.13
2022-08-17T08:51:10.436Z,97112.41
2022-08-17T08:53:46.362Z,97103.69
2022-08-17T08:56:21.388Z,97113.03
2022-08-17T08:58:53.274Z,97119.00
2022-08-17T09:01:26.992Z,97112.50
2022-08-17T09:04:21.785Z,97114.44
2022-08-17T09:07:00.191Z,97110.66
2022-08-17T09:09:36.731Z,97105.59
2022-08-17T09:12:09.827Z,97106.16
2022-08-17T09:14:46.656Z,97103.44
2022-08-17T09:17:16.643Z,97098.44
2022-08-17T09:19:50.479Z,97089.34
2022-08-17T09:22:31.664Z,97099.09
2022-08-17T09:25:06.773Z,97103.84
2022-08-17T09:27:37.612Z,97103.50
2022-08-17T09:30:08.883Z,97095.41
2022-08-17T09:32:40.164Z,97081.38
2022-08-17T09:35:13.992Z,97085.22
2022-08-17T09:37:57.821Z,97082.69
2022-08-17T09:40:28.641Z,97085.34
2022-08-17T09:43:00.593Z,97084.91
2022-08-17T09:45:32.650Z,97075.22
2022-08-17T09:48:04.907Z,97075.69
2022-08-17T09:51:03.388Z,97076.81
2022-08-17T09:53:25.360Z,97067.53
2022-08-17T09:56:06.453Z,97064.88
2022-08-17T09:58:41.728Z,97071.47
2022-08-17T10:01:18.195Z,97063.84
2022-08-17T10:03:59.952Z,97057.94
2022-08-17T10:06:32.355Z,97066.69
2022-08-17T10:09:07.738Z,97058.31
2022-08-17T10:11:57.581Z,97061.16
2022-08-17T10:14:36.316Z,97065.59
2022-08-17T10:17:13.529Z,97062.31
2022-08-17T10:19:47.699Z,97062.94
2022-08-17T10:22:38.827Z,97049.88
2022-08-17T10:25:37.624Z,97046.06
2022-08-17T10:28:20.093Z,97044.97
2022-08-17T10:30:51.871Z,97040.06
2022-08-17T10:33:24.446Z,97042.78
2022-08-17T10:35:57.293Z,97048.22
2022-08-17T10:38:32.430Z,97061.84
2022-08-17T10:41:03.773Z,97070.53
2022-08-17T10:43:38.418Z,97058.25
2022-08-17T10:46:31.268Z,97050.69
2022-08-17T10:49:23.535Z,97057.19
2022-08-17T10:51:53.473Z,97055.81
2022-08-17T10:54:46.872Z,97051.47
2022-08-17T10:57:37.893Z,97048.66
2022-08-17T11:00:14.681Z,97045.66
2022-08-17T11:02:49.868Z,97031.81
2022-08-17T11:05:31.693Z,97034.72
2022-08-17T11:08:20.342Z,97043.34
2022-08-17T11:10:58.996Z,97036.44
2022-08-17T11:13:39.937Z,97041.06
2022-08-17T11:16:27.294Z,97034.94
2022-08-17T11:19:11.510Z,97023.13
2022-08-17T11:22:03.006Z,97013.06
2022-08-17T11:24:35.723Z,97017.69
2022-08-17T11:27:12.176Z,97021.91
2022-08-17T11:29:59.473Z,97015.56
2022-08-17T11:32:36.972Z,97012.97
2022-08-17T11:35:28.372Z,97006.56
2022-08-17T11:38:16.100Z,97011.63
2022-08-17T11:41:08.164Z,97011.94
2022-08-17T11:43:55.372Z,97009.13
2022-08-17T11:46:51.713Z,97018.72
2022-08-17T11:49:49.291Z,97017.19
2022-08-17T11:52:38.441Z,97032.91
2022-08-17T11:55:31.923Z,97037.75
2022-08-17T11:58:01.559Z,97047.56
2022-08-17T12:00:58.305Z,97041.03
2022-08-17T12:03:55.315Z,97041.28
2022-08-17T12:06:42.559Z,97041.88
2022-08-17T12:09:15.683Z,97039.75
2022-08-17T12:11:58.683Z,97029.28
2022-08-17T12:15:08.516Z,97031.28
2022-08-17T12:17:40.938Z,97022.50
2022-08-17T12:20:14.768Z,97008.28
2022-08-17T12:22:54.814Z,97023.09
2022-08-17T12:25:25.891Z,97013.41
2022-08-17T12:28:06.401Z,97014.09
2022-08-17T12:30:35.626Z,97021.69
2022-08-17T12:33:05.218Z,97001.75
2022-08-17T12:35:35.196Z,97006.16
2022-08-17T12:38:04.409Z,97005.91
2022-08-17T12:40:33.442Z,97006.22
2022-08-17T12:43:02.916Z,97005.06
2022-08-17T12:45:33.580Z,97017.81
2022-08-17T12:48:02.641Z,97010.75
2022-08-17T12:50:32.246Z,97012.59
2022-08-17T12:53:02.528Z,97005.78
2022-08-17T12:55:32.683Z,97000.41
2022-08-17T12:58:02.265Z,97005.78
2022-08-17T13:00:32.245Z,97007.84
2022-08-17T13:03:01.900Z,96996.13
2022-08-17T13:05:34.019Z,97005.88
2022-08-17T13:08:04.411Z,96999.03
2022-08-17T13:10:36.004Z,96996.66
2022-08-17T13:13:21.905Z,96995.50
2022-08-17T13:15:53.944Z,96996.72
2022-08-17T13:18:40.793Z,96986.81
2022-08-17T13:21:13.934Z,96992.56
2022-08-17T13:23:44.790Z,96999.72
2022-08-17T13:26:27.667Z,96997.41
2022-08-17T13:28:55.442Z,96986.00
2022-08-17T13:31:25.110Z,96986.28
2022-08-17T13:33:52.744Z,96976.69
2022-08-17T13:36:32.058Z,96975.50
2022-08-17T13:39:09.040Z,96978.16
2022-08-17T13:41:38.821Z,96977.03
2022-08-17T13:44:31.162Z,96971.56
2022-08-17T13:47:00.254Z,96969.59
2022-08-17T13:49:48.546Z,96973.69
2022-08-17T13:55:18.836Z,96969.41
2022-08-17T13:57:47.169Z,96964.19
2022-08-17T14:00:20.180Z,96965.84
2022-08-17T14:02:47.772Z,96962.56
2022-08-17T14:05:15.833Z,96955.25
2022-08-17T14:07:43.516Z,96951.44
2022-08-17T14:10:15.547Z,96948.47
2022-08-17T14:12:45.195Z,96945.88
2022-08-17T14:15:14.357Z,96944.19
2022-08-17T14:17:42.005Z,96949.78
2022-08-17T14:20:12.090Z,96951.75
2022-08-17T14:22:42.104Z,96946.75
2022-08-17T14:25:10.502Z,96939.34
2022-08-17T14:27:43.513Z,96937.69
2022-08-17T14:30:22.292Z,96942.69
2022-08-17T14:32:51.778Z,96942.09
2022-08-17T14:35:21.864Z,96943.03
2022-08-17T14:37:49.674Z,96936.97
2022-08-17T14:40:20.404Z,96928.41
2022-08-17T14:42:49.825Z,96937.53
2022-08-17T14:45:31.640Z,96927.31
2022-08-17T14:48:01.587Z,96924.88
2022-08-17T14:50:29.345Z,96917.72
2022-08-17T14:52:58.136Z,96924.94
2022-08-17T14:55:26.859Z,96918.47
2022-08-17T14:57:55.792Z,96906.19
2022-08-17T15:00:23.629Z,96898.59
2022-08-17T15:02:54.606Z,96904.06
2022-08-17T15:05:24.523Z,96896.69
2022-08-17T15:07:53.287Z,96895.38
2022-08-17T15:10:21.595Z,96900.19
2022-08-17T15:12:49.592Z,96898.38
2022-08-17T15:15:18.957Z,96892.06
2022-08-17T15:17:46.877Z,96889.25
2022-08-17T15:20:18.191Z,96884.56
2022-08-17T15:22:49.338Z,96887.06
2022-08-17T15:25:17.645Z,96878.06
2022-08-17T15:27:45.335Z,96876.94
2022-08-17T15:30:14.781Z,96870.22
2022-08-17T15:32:45.670Z,96867.34
2022-08-17T15:35:22.036Z,96866.19
2022-08-17T15:37:56.465Z,96879.06
2022-08-17T15:40:25.158Z,96885.50
2022-08-17T15:42:53.046Z,96886.66
2022-08-17T15:45:24.558Z,96877.38
2022-08-17T15:47:53.642Z,96872.88
2022-08-17T15:50:21.302Z,96888.44
2022-08-17T15:52:55.626Z,96890.84
2022-08-17T15:55:24.243Z,96898.72
2022-08-17T15:57:53.032Z,96892.44
2022-08-17T16:00:23.567Z,96899.88
2022-08-17T16:03:46.467Z,96888.66
2022-08-17T16:05:41.071Z,96895.75
2022-08-17T16:08:10.939Z,96895.84
2022-08-17T16:10:39.000Z,96900.88
2022-08-17T16:13:17.560Z,96898.94
2022-08-17T16:15:51.056Z,96900.56
2022-08-17T16:18:26.369Z,96904.44
2022-08-17T16:20:55.708Z,96894.16
2022-08-17T16:23:24.347Z,96894.69
2022-08-17T16:25:53.006Z,96898.34
2022-08-17T16:28:22.564Z,96904.66
2022-08-17T16:31:03.222Z,96897.88
2022-08-17T16:33:30.801Z,96898.28
2022-08-17T16:35:59.788Z,96905.88
2022-08-17T16:38:27.520Z,96895.94
2022-08-17T16:40:55.136Z,96894.06
2022-08-17T16:43:23.052Z,96902.16
2022-08-17T16:45:52.242Z,96892.38
2022-08-17T16:48:20.010Z,96888.66
2022-08-17T16:50:59.974Z,96890.59
2022-08-17T16:53:33.199Z,96881.31
2022-08-17T16:56:01.001Z,96891.69
2022-08-17T16:58:29.028Z,96884.34
2022-08-17T17:00:59.482Z,96884.91
2022-08-17T17:03:28.833Z,96893.38
2022-08-17T17:06:03.650Z,96888.81
2022-08-17T17:08:43.626Z,96888.53
2022-08-17T17:11:14.917Z,96893.75
2022-08-17T17:13:46.770Z,96895.66
2022-08-17T17:16:20.728Z,96890.19
2022-08-17T17:18:59.086Z,96888.31
2022-08-17T17:21:32.785Z,96880.72
